sensor_id;sensor_type;location;lat;lon;timestamp;P1;P2;P0
50866;PMS7003;36839;51.946;21.002;2023-03-03T00:01:04;129.50;101.50;62.50
50866;PMS7003;36839;51.946;21.002;2023-03-03T00:03:32;127.00;107.00;63.00
50866;PMS7003;36839;51.946;21.002;2023-03-03T00:05:59;130.00;106.50;67.50
50866;PMS7003;36839;51.946;21.002;2023-03-03T00:08:29;113.00;96.00;61.00
50866;PMS7003;36839;51.946;21.002;2023-03-03T00:13:26;115.00;87.00;53.00
50866;PMS7003;36839;51.946;21.002;2023-03-03T00:15:54;105.00;83.33;50.33
50866;PMS7003;36839;51.946;21.002;2023-03-03T00:18:36;112.50;86.00;48.50
50866;PMS7003;36839;51.946;21.002;2023-03-03T00:21:45;121.00;105.00;58.00
50866;PMS7003;36839;51.946;21.002;2023-03-03T00:26:51;113.00;97.00;57.00
50866;PMS7003;36839;51.946;21.002;2023-03-03T00:29:34;126.50;92.50;54.50
50866;PMS7003;36839;51.946;21.002;2023-03-03T00:34:49;95.00;73.00;39.50
50866;PMS7003;36839;51.946;21.002;2023-03-03T00:40:10;122.00;93.00;50.00
50866;PMS7003;36839;51.946;21.002;2023-03-03T00:42:47;133.00;104.00;66.00
50866;PMS7003;36839;51.946;21.002;2023-03-03T00:45:30;128.00;106.00;59.00
50866;PMS7003;36839;51.946;21.002;2023-03-03T00:48:20;127.00;105.00;60.00
50866;PMS7003;36839;51.946;21.002;2023-03-03T00:50:49;122.00;97.00;59.00
50866;PMS7003;36839;51.946;21.002;2023-03-03T00:53:18;128.00;103.00;57.00
50866;PMS7003;36839;51.946;21.002;2023-03-03T00:55:47;137.50;106.50;64.00
50866;PMS7003;36839;51.946;21.002;2023-03-03T00:58:15;110.00;89.00;51.00
50866;PMS7003;36839;51.946;21.002;2023-03-03T01:03:14;123.00;94.00;54.00
50866;PMS7003;36839;51.946;21.002;2023-03-03T01:05:42;104.00;76.50;46.00
50866;PMS7003;36839;51.946;21.002;2023-03-03T01:08:10;41.50;6.00;0.00
50866;PMS7003;36839;51.946;21.002;2023-03-03T01:10:42;94.00;71.00;43.00
50866;PMS7003;36839;51.946;21.002;2023-03-03T01:13:16;100.00;78.00;47.00
50866;PMS7003;36839;51.946;21.002;2023-03-03T01:16:03;105.00;81.00;50.00
50866;PMS7003;36839;51.946;21.002;2023-03-03T01:18:31;95.00;70.00;42.00
50866;PMS7003;36839;51.946;21.002;2023-03-03T01:21:05;107.50;83.50;48.00
50866;PMS7003;36839;51.946;21.002;2023-03-03T01:23:33;110.00;89.50;50.00
50866;PMS7003;36839;51.946;21.002;2023-03-03T01:26:03;107.50;88.50;51.50
50866;PMS7003;36839;51.946;21.002;2023-03-03T01:28:34;111.50;89.00;51.00
50866;PMS7003;36839;51.946;21.002;2023-03-03T01:31:02;111.00;88.00;48.50
50866;PMS7003;36839;51.946;21.002;2023-03-03T01:33:31;93.00;77.00;47.00
50866;PMS7003;36839;51.946;21.002;2023-03-03T01:36:00;107.50;85.50;49.00
50866;PMS7003;36839;51.946;21.002;2023-03-03T01:38:30;109.00;85.00;51.00
50866;PMS7003;36839;51.946;21.002;2023-03-03T01:40:58;105.00;76.00;47.00
50866;PMS7003;36839;51.946;21.002;2023-03-03T01:43:26;103.50;83.00;50.50
50866;PMS7003;36839;51.946;21.002;2023-03-03T01:51:04;90.00;70.50;44.00
50866;PMS7003;36839;51.946;21.002;2023-03-03T01:53:52;103.50;78.50;45.00
50866;PMS7003;36839;51.946;21.002;2023-03-03T01:56:23;101.00;77.50;48.00
50866;PMS7003;36839;51.946;21.002;2023-03-03T02:01:19;102.00;85.00;51.00
50866;PMS7003;36839;51.946;21.002;2023-03-03T02:03:50;102.50;78.50;48.50
50866;PMS7003;36839;51.946;21.002;2023-03-03T02:06:19;105.50;81.50;48.50
50866;PMS7003;36839;51.946;21.002;2023-03-03T02:08:59;103.00;76.00;48.00
50866;PMS7003;36839;51.946;21.002;2023-03-03T02:11:28;99.00;74.00;47.00
50866;PMS7003;36839;51.946;21.002;2023-03-03T02:13:59;99.00;72.00;43.00
50866;PMS7003;36839;51.946;21.002;2023-03-03T02:16:26;99.00;74.50;46.00
50866;PMS7003;36839;51.946;21.002;2023-03-03T02:18:53;102.00;74.00;44.00
50866;PMS7003;36839;51.946;21.002;2023-03-03T02:21:21;93.00;63.00;38.00
50866;PMS7003;36839;51.946;21.002;2023-03-03T02:24:02;100.00;72.00;46.00
50866;PMS7003;36839;51.946;21.002;2023-03-03T02:26:41;83.50;63.00;39.00
50866;PMS7003;36839;51.946;21.002;2023-03-03T02:29:11;100.00;74.00;46.00
50866;PMS7003;36839;51.946;21.002;2023-03-03T02:31:38;93.00;66.00;41.00
50866;PMS7003;36839;51.946;21.002;2023-03-03T02:34:05;78.50;61.00;39.00
50866;PMS7003;36839;51.946;21.002;2023-03-03T02:36:34;83.50;59.50;36.00
50866;PMS7003;36839;51.946;21.002;2023-03-03T02:39:16;77.50;59.00;37.00
50866;PMS7003;36839;51.946;21.002;2023-03-03T02:44:31;74.50;55.50;34.50
50866;PMS7003;36839;51.946;21.002;2023-03-03T02:46:59;79.00;55.00;33.00
50866;PMS7003;36839;51.946;21.002;2023-03-03T02:49:30;89.00;62.00;39.00
50866;PMS7003;36839;51.946;21.002;2023-03-03T02:52:00;88.00;67.00;42.00
50866;PMS7003;36839;51.946;21.002;2023-03-03T02:54:29;87.00;68.00;42.00
50866;PMS7003;36839;51.946;21.002;2023-03-03T02:56:57;94.00;69.00;42.00
50866;PMS7003;36839;51.946;21.002;2023-03-03T02:59:25;93.00;68.50;41.00
50866;PMS7003;36839;51.946;21.002;2023-03-03T03:01:52;90.00;65.00;40.00
50866;PMS7003;36839;51.946;21.002;2023-03-03T03:04:21;91.50;69.00;41.50
50866;PMS7003;36839;51.946;21.002;2023-03-03T03:06:53;93.00;71.00;42.00
50866;PMS7003;36839;51.946;21.002;2023-03-03T03:09:22;87.00;63.00;40.00
50866;PMS7003;36839;51.946;21.002;2023-03-03T03:11:50;95.00;69.00;43.00
50866;PMS7003;36839;51.946;21.002;2023-03-03T03:14:18;96.00;70.00;43.00
50866;PMS7003;36839;51.946;21.002;2023-03-03T03:19:12;86.00;63.50;41.50
50866;PMS7003;36839;51.946;21.002;2023-03-03T03:21:39;90.00;66.00;38.00
50866;PMS7003;36839;51.946;21.002;2023-03-03T03:24:06;94.00;68.50;42.50
50866;PMS7003;36839;51.946;21.002;2023-03-03T03:26:33;92.00;65.00;41.00
50866;PMS7003;36839;51.946;21.002;2023-03-03T03:29:00;87.00;65.00;39.00
50866;PMS7003;36839;51.946;21.002;2023-03-03T03:31:27;90.00;66.00;41.00
50866;PMS7003;36839;51.946;21.002;2023-03-03T03:33:55;88.50;66.50;40.50
50866;PMS7003;36839;51.946;21.002;2023-03-03T03:36:22;91.00;67.00;40.00
50866;PMS7003;36839;51.946;21.002;2023-03-03T03:38:52;92.00;62.00;40.00
50866;PMS7003;36839;51.946;21.002;2023-03-03T03:41:19;90.50;62.50;39.00
50866;PMS7003;36839;51.946;21.002;2023-03-03T03:43:46;90.00;65.00;40.00
50866;PMS7003;36839;51.946;21.002;2023-03-03T03:46:13;79.00;60.00;37.00
50866;PMS7003;36839;51.946;21.002;2023-03-03T03:48:40;86.00;65.00;39.00
50866;PMS7003;36839;51.946;21.002;2023-03-03T03:51:08;76.00;59.00;38.00
50866;PMS7003;36839;51.946;21.002;2023-03-03T03:53:37;82.00;60.50;38.50
50866;PMS7003;36839;51.946;21.002;2023-03-03T03:56:04;81.00;64.00;40.00
50866;PMS7003;36839;51.946;21.002;2023-03-03T03:58:32;81.00;60.00;38.00
50866;PMS7003;36839;51.946;21.002;2023-03-03T04:01:03;73.00;56.00;36.00
50866;PMS7003;36839;51.946;21.002;2023-03-03T04:03:31;81.50;61.50;38.00
50866;PMS7003;36839;51.946;21.002;2023-03-03T04:05:59;89.00;64.00;39.00
50866;PMS7003;36839;51.946;21.002;2023-03-03T04:08:25;81.00;60.50;39.00
50866;PMS7003;36839;51.946;21.002;2023-03-03T04:10:52;83.00;60.00;38.00
50866;PMS7003;36839;51.946;21.002;2023-03-03T04:13:19;84.00;63.00;38.00
50866;PMS7003;36839;51.946;21.002;2023-03-03T04:18:14;88.50;65.50;42.00
50866;PMS7003;36839;51.946;21.002;2023-03-03T04:20:41;90.50;65.50;40.50
50866;PMS7003;36839;51.946;21.002;2023-03-03T04:23:08;83.00;62.00;39.00
50866;PMS7003;36839;51.946;21.002;2023-03-03T04:25:35;85.50;65.50;38.50
50866;PMS7003;36839;51.946;21.002;2023-03-03T04:28:03;86.00;60.00;39.00
50866;PMS7003;36839;51.946;21.002;2023-03-03T04:30:30;82.00;60.50;38.00
50866;PMS7003;36839;51.946;21.002;2023-03-03T04:32:58;79.50;61.00;36.50
50866;PMS7003;36839;51.946;21.002;2023-03-03T04:35:25;78.00;59.50;35.00
50866;PMS7003;36839;51.946;21.002;2023-03-03T04:37:51;88.00;66.00;42.00
50866;PMS7003;36839;51.946;21.002;2023-03-03T04:40:19;98.50;72.00;43.00
50866;PMS7003;36839;51.946;21.002;2023-03-03T04:42:46;89.00;69.00;42.00
50866;PMS7003;36839;51.946;21.002;2023-03-03T04:45:13;79.00;60.00;37.00
50866;PMS7003;36839;51.946;21.002;2023-03-03T04:47:40;87.00;62.00;38.50
50866;PMS7003;36839;51.946;21.002;2023-03-03T04:50:08;75.00;55.00;33.00
50866;PMS7003;36839;51.946;21.002;2023-03-03T04:52:39;75.00;56.00;36.00
50866;PMS7003;36839;51.946;21.002;2023-03-03T04:55:06;75.00;59.00;36.00
50866;PMS7003;36839;51.946;21.002;2023-03-03T04:57:34;80.00;61.00;38.00
50866;PMS7003;36839;51.946;21.002;2023-03-03T05:00:01;78.50;59.00;36.00
50866;PMS7003;36839;51.946;21.002;2023-03-03T05:02:28;73.00;59.00;36.00
50866;PMS7003;36839;51.946;21.002;2023-03-03T05:04:55;78.00;57.00;33.00
50866;PMS7003;36839;51.946;21.002;2023-03-03T05:07:23;74.50;53.50;33.50
50866;PMS7003;36839;51.946;21.002;2023-03-03T05:09:50;71.00;54.50;30.50
50866;PMS7003;36839;51.946;21.002;2023-03-03T05:12:17;87.00;62.00;39.00
50866;PMS7003;36839;51.946;21.002;2023-03-03T05:14:44;86.50;63.00;39.00
50866;PMS7003;36839;51.946;21.002;2023-03-03T05:17:12;83.00;62.00;38.00
50866;PMS7003;36839;51.946;21.002;2023-03-03T05:19:39;74.50;56.00;36.50
50866;PMS7003;36839;51.946;21.002;2023-03-03T05:22:06;72.00;55.00;33.00
50866;PMS7003;36839;51.946;21.002;2023-03-03T05:24:33;71.50;53.00;32.50
50866;PMS7003;36839;51.946;21.002;2023-03-03T05:29:28;73.50;53.50;31.50
50866;PMS7003;36839;51.946;21.002;2023-03-03T05:31:57;78.00;59.00;34.50
50866;PMS7003;36839;51.946;21.002;2023-03-03T05:36:51;77.00;57.00;38.00
50866;PMS7003;36839;51.946;21.002;2023-03-03T05:39:19;68.00;45.00;31.00
50866;PMS7003;36839;51.946;21.002;2023-03-03T05:41:46;75.00;59.00;36.00
50866;PMS7003;36839;51.946;21.002;2023-03-03T05:44:13;75.00;55.50;35.50
50866;PMS7003;36839;51.946;21.002;2023-03-03T05:46:40;84.00;63.00;38.00
50866;PMS7003;36839;51.946;21.002;2023-03-03T05:51:35;86.50;61.50;36.00
50866;PMS7003;36839;51.946;21.002;2023-03-03T05:54:03;68.50;50.50;35.00
50866;PMS7003;36839;51.946;21.002;2023-03-03T05:56:32;67.00;49.00;30.00
50866;PMS7003;36839;51.946;21.002;2023-03-03T05:59:00;89.00;64.00;38.00
50866;PMS7003;36839;51.946;21.002;2023-03-03T06:01:28;69.00;53.50;35.50
50866;PMS7003;36839;51.946;21.002;2023-03-03T06:03:57;79.00;59.00;36.50
50866;PMS7003;36839;51.946;21.002;2023-03-03T06:06:24;77.00;58.00;35.00
50866;PMS7003;36839;51.946;21.002;2023-03-03T06:08:51;82.50;61.00;37.00
50866;PMS7003;36839;51.946;21.002;2023-03-03T06:11:19;80.00;57.00;33.00
50866;PMS7003;36839;51.946;21.002;2023-03-03T06:18:40;80.50;59.50;36.00
50866;PMS7003;36839;51.946;21.002;2023-03-03T06:21:07;81.00;60.00;36.00
50866;PMS7003;36839;51.946;21.002;2023-03-03T06:23:34;77.50;56.50;34.00
50866;PMS7003;36839;51.946;21.002;2023-03-03T06:26:01;80.00;59.00;35.00
50866;PMS7003;36839;51.946;21.002;2023-03-03T06:30:56;79.00;57.00;35.00
50866;PMS7003;36839;51.946;21.002;2023-03-03T06:33:24;71.00;53.00;33.00
50866;PMS7003;36839;51.946;21.002;2023-03-03T06:35:51;73.00;55.00;32.00
50866;PMS7003;36839;51.946;21.002;2023-03-03T06:38:20;84.00;60.00;35.00
50866;PMS7003;36839;51.946;21.002;2023-03-03T06:40:47;82.00;59.00;34.00
50866;PMS7003;36839;51.946;21.002;2023-03-03T06:43:14;73.50;55.00;33.00
50866;PMS7003;36839;51.946;21.002;2023-03-03T06:45:41;78.50;57.50;35.50
50866;PMS7003;36839;51.946;21.002;2023-03-03T06:48:09;80.00;58.00;35.00
50866;PMS7003;36839;51.946;21.002;2023-03-03T06:50:36;75.33;58.00;34.67
50866;PMS7003;36839;51.946;21.002;2023-03-03T06:53:12;80.00;60.00;33.00
50866;PMS7003;36839;51.946;21.002;2023-03-03T06:55:41;78.00;59.50;35.00
50866;PMS7003;36839;51.946;21.002;2023-03-03T06:58:11;112.00;94.00;48.00
50866;PMS7003;36839;51.946;21.002;2023-03-03T07:00:44;89.50;64.00;40.00
50866;PMS7003;36839;51.946;21.002;2023-03-03T07:03:23;89.00;65.50;39.00
50866;PMS7003;36839;51.946;21.002;2023-03-03T07:05:53;86.00;60.00;35.00
50866;PMS7003;36839;51.946;21.002;2023-03-03T07:08:22;74.50;57.00;35.50
50866;PMS7003;36839;51.946;21.002;2023-03-03T07:10:50;78.00;57.00;33.00
50866;PMS7003;36839;51.946;21.002;2023-03-03T07:13:21;76.00;55.00;35.00
50866;PMS7003;36839;51.946;21.002;2023-03-03T07:15:51;77.00;56.00;35.00
50866;PMS7003;36839;51.946;21.002;2023-03-03T07:18:30;75.00;56.00;31.50
50866;PMS7003;36839;51.946;21.002;2023-03-03T07:21:22;37.00;12.00;3.00
50866;PMS7003;36839;51.946;21.002;2023-03-03T07:24:00;77.00;55.00;33.00
50866;PMS7003;36839;51.946;21.002;2023-03-03T07:27:40;79.00;55.00;34.00
50866;PMS7003;36839;51.946;21.002;2023-03-03T07:29:50;78.50;56.50;34.50
50866;PMS7003;36839;51.946;21.002;2023-03-03T07:32:26;77.00;57.00;33.00
50866;PMS7003;36839;51.946;21.002;2023-03-03T07:35:25;72.00;54.00;31.00
50866;PMS7003;36839;51.946;21.002;2023-03-03T07:43:34;75.00;51.00;29.00
50866;PMS7003;36839;51.946;21.002;2023-03-03T07:48:37;78.00;58.50;35.50
50866;PMS7003;36839;51.946;21.002;2023-03-03T07:51:18;72.50;49.00;30.00
50866;PMS7003;36839;51.946;21.002;2023-03-03T07:53:48;71.00;53.00;32.00
50866;PMS7003;36839;51.946;21.002;2023-03-03T07:56:16;72.50;52.50;31.00
50866;PMS7003;36839;51.946;21.002;2023-03-03T07:58:56;72.00;50.00;30.00
50866;PMS7003;36839;51.946;21.002;2023-03-03T08:04:54;74.00;50.00;32.00
50866;PMS7003;36839;51.946;21.002;2023-03-03T08:07:24;86.00;64.00;39.00
50866;PMS7003;36839;51.946;21.002;2023-03-03T08:09:58;68.50;52.00;32.00
50866;PMS7003;36839;51.946;21.002;2023-03-03T08:15:19;69.00;50.00;28.00
50866;PMS7003;36839;51.946;21.002;2023-03-03T08:17:50;67.00;50.00;31.00
50866;PMS7003;36839;51.946;21.002;2023-03-03T08:20:41;62.00;52.00;29.00
50866;PMS7003;36839;51.946;21.002;2023-03-03T08:23:13;70.00;50.00;30.00
50866;PMS7003;36839;51.946;21.002;2023-03-03T08:25:42;73.00;50.00;27.00
50866;PMS7003;36839;51.946;21.002;2023-03-03T08:28:10;65.00;49.00;28.00
50866;PMS7003;36839;51.946;21.002;2023-03-03T08:30:38;68.00;49.50;30.00
50866;PMS7003;36839;51.946;21.002;2023-03-03T08:33:05;89.00;64.50;40.00
50866;PMS7003;36839;51.946;21.002;2023-03-03T08:35:32;65.00;49.00;30.00
50866;PMS7003;36839;51.946;21.002;2023-03-03T08:40:27;71.00;51.00;28.00
50866;PMS7003;36839;51.946;21.002;2023-03-03T08:42:54;66.00;48.00;27.50
50866;PMS7003;36839;51.946;21.002;2023-03-03T08:45:24;68.00;53.00;30.00
50866;PMS7003;36839;51.946;21.002;2023-03-03T08:47:51;62.00;48.00;28.00
50866;PMS7003;36839;51.946;21.002;2023-03-03T08:50:19;65.00;48.00;28.00
50866;PMS7003;36839;51.946;21.002;2023-03-03T08:52:47;65.00;47.00;27.00
50866;PMS7003;36839;51.946;21.002;2023-03-03T08:55:15;58.00;43.00;27.00
50866;PMS7003;36839;51.946;21.002;2023-03-03T08:57:42;61.50;47.00;27.00
50866;PMS7003;36839;51.946;21.002;2023-03-03T09:00:10;61.00;44.00;26.00
50866;PMS7003;36839;51.946;21.002;2023-03-03T09:02:39;64.50;47.00;27.00
50866;PMS7003;36839;51.946;21.002;2023-03-03T09:05:07;63.50;47.00;26.00
50866;PMS7003;36839;51.946;21.002;2023-03-03T09:07:35;56.00;47.00;27.00
50866;PMS7003;36839;51.946;21.002;2023-03-03T09:12:31;66.00;50.50;30.50
50866;PMS7003;36839;51.946;21.002;2023-03-03T09:15:23;66.00;52.00;30.00
50866;PMS7003;36839;51.946;21.002;2023-03-03T09:17:57;62.00;45.00;23.00
50866;PMS7003;36839;51.946;21.002;2023-03-03T09:20:46;60.50;48.00;29.50
50866;PMS7003;36839;51.946;21.002;2023-03-03T09:23:24;66.00;49.00;29.00
50866;PMS7003;36839;51.946;21.002;2023-03-03T09:26:44;98.00;81.00;43.00
50866;PMS7003;36839;51.946;21.002;2023-03-03T09:31:43;67.00;52.00;30.00
50866;PMS7003;36839;51.946;21.002;2023-03-03T09:34:15;73.50;58.00;36.50
50866;PMS7003;36839;51.946;21.002;2023-03-03T09:39:49;62.50;48.00;28.00
50866;PMS7003;36839;51.946;21.002;2023-03-03T09:44:59;63.50;49.00;31.00
50866;PMS7003;36839;51.946;21.002;2023-03-03T09:50:32;70.00;46.00;27.00
50866;PMS7003;36839;51.946;21.002;2023-03-03T10:01:54;59.00;44.00;27.00
50866;PMS7003;36839;51.946;21.002;2023-03-03T10:07:17;58.00;43.00;24.00
50866;PMS7003;36839;51.946;21.002;2023-03-03T10:15:02;43.50;31.50;19.00
50866;PMS7003;36839;51.946;21.002;2023-03-03T10:26:15;61.00;43.00;26.00
50866;PMS7003;36839;51.946;21.002;2023-03-03T10:29:01;56.00;43.00;26.00
50866;PMS7003;36839;51.946;21.002;2023-03-03T10:45:59;58.00;44.00;26.50
50866;PMS7003;36839;51.946;21.002;2023-03-03T10:49:00;63.00;49.50;29.50
50866;PMS7003;36839;51.946;21.002;2023-03-03T10:52:07;65.00;47.00;29.00
50866;PMS7003;36839;51.946;21.002;2023-03-03T11:06:17;56.00;41.00;22.00
50866;PMS7003;36839;51.946;21.002;2023-03-03T11:08:50;56.00;37.00;23.00
50866;PMS7003;36839;51.946;21.002;2023-03-03T11:11:29;36.00;29.00;21.00
50866;PMS7003;36839;51.946;21.002;2023-03-03T11:16:49;49.00;36.00;21.50
50866;PMS7003;36839;51.946;21.002;2023-03-03T11:33:10;59.00;40.00;24.00
50866;PMS7003;36839;51.946;21.002;2023-03-03T11:36:05;49.00;39.00;23.00
50866;PMS7003;36839;51.946;21.002;2023-03-03T11:38:59;89.00;64.00;38.00
50866;PMS7003;36839;51.946;21.002;2023-03-03T11:41:31;48.00;36.00;24.33
50866;PMS7003;36839;51.946;21.002;2023-03-03T11:46:51;65.50;48.50;27.00
50866;PMS7003;36839;51.946;21.002;2023-03-03T11:49:33;59.00;47.00;27.00
50866;PMS7003;36839;51.946;21.002;2023-03-03T11:52:13;64.00;45.00;27.00
50866;PMS7003;36839;51.946;21.002;2023-03-03T12:11:35;63.00;46.00;24.00
50866;PMS7003;36839;51.946;21.002;2023-03-03T12:24:56;60.00;44.00;25.00
50866;PMS7003;36839;51.946;21.002;2023-03-03T12:27:29;63.00;47.00;26.00
50866;PMS7003;36839;51.946;21.002;2023-03-03T12:32:57;59.00;43.00;27.00
50866;PMS7003;36839;51.946;21.002;2023-03-03T12:41:06;54.00;38.00;28.00
50866;PMS7003;36839;51.946;21.002;2023-03-03T12:44:23;64.50;46.50;27.50
50866;PMS7003;36839;51.946;21.002;2023-03-03T12:47:05;57.50;44.50;28.00
50866;PMS7003;36839;51.946;21.002;2023-03-03T12:49:58;56.00;43.00;27.00
50866;PMS7003;36839;51.946;21.002;2023-03-03T12:55:23;55.00;41.00;26.00
50866;PMS7003;36839;51.946;21.002;2023-03-03T13:03:52;64.50;47.50;28.50
50866;PMS7003;36839;51.946;21.002;2023-03-03T13:09:05;60.00;44.50;27.00
50866;PMS7003;36839;51.946;21.002;2023-03-03T13:14:38;66.00;46.00;27.00
50866;PMS7003;36839;51.946;21.002;2023-03-03T13:17:44;48.00;27.00;15.00
50866;PMS7003;36839;51.946;21.002;2023-03-03T13:28:12;57.00;41.00;23.00
50866;PMS7003;36839;51.946;21.002;2023-03-03T13:38:12;59.00;43.00;24.00
50866;PMS7003;36839;51.946;21.002;2023-03-03T13:40:47;54.00;41.00;26.00
50866;PMS7003;36839;51.946;21.002;2023-03-03T13:54:40;56.00;46.00;26.00
50866;PMS7003;36839;51.946;21.002;2023-03-03T14:11:05;48.50;36.00;20.00
50866;PMS7003;36839;51.946;21.002;2023-03-03T14:17:14;53.00;41.00;24.00
50866;PMS7003;36839;51.946;21.002;2023-03-03T14:19:46;57.00;40.50;25.50
50866;PMS7003;36839;51.946;21.002;2023-03-03T14:22:21;61.00;44.00;23.00
50866;PMS7003;36839;51.946;21.002;2023-03-03T14:25:00;63.50;41.00;24.00
50866;PMS7003;36839;51.946;21.002;2023-03-03T14:33:07;51.00;40.00;25.00
50866;PMS7003;36839;51.946;21.002;2023-03-03T14:35:47;60.00;43.00;27.00
50866;PMS7003;36839;51.946;21.002;2023-03-03T14:38:40;49.50;36.00;21.50
50866;PMS7003;36839;51.946;21.002;2023-03-03T14:43:39;56.00;42.00;25.00
50866;PMS7003;36839;51.946;21.002;2023-03-03T14:48:57;49.00;41.00;24.50
50866;PMS7003;36839;51.946;21.002;2023-03-03T14:51:38;51.00;40.00;24.00
50866;PMS7003;36839;51.946;21.002;2023-03-03T14:54:32;58.00;42.00;26.00
50866;PMS7003;36839;51.946;21.002;2023-03-03T14:59:56;61.00;44.00;28.00
50866;PMS7003;36839;51.946;21.002;2023-03-03T15:02:30;62.50;44.50;26.50
50866;PMS7003;36839;51.946;21.002;2023-03-03T15:07:52;52.00;40.00;24.00
50866;PMS7003;36839;51.946;21.002;2023-03-03T15:10:37;50.00;39.00;22.00
50866;PMS7003;36839;51.946;21.002;2023-03-03T15:13:52;53.50;39.00;24.00
50866;PMS7003;36839;51.946;21.002;2023-03-03T15:18:31;55.50;37.00;23.00
50866;PMS7003;36839;51.946;21.002;2023-03-03T15:29:24;50.00;40.00;25.00
50866;PMS7003;36839;51.946;21.002;2023-03-03T15:42:46;51.00;39.00;26.00
50866;PMS7003;36839;51.946;21.002;2023-03-03T16:01:45;52.50;40.00;25.50
50866;PMS7003;36839;51.946;21.002;2023-03-03T16:04:20;58.00;43.00;26.00
50866;PMS7003;36839;51.946;21.002;2023-03-03T16:17:54;50.00;39.00;25.00
50866;PMS7003;36839;51.946;21.002;2023-03-03T16:23:23;46.00;38.00;24.00
50866;PMS7003;36839;51.946;21.002;2023-03-03T16:26:09;60.50;41.50;25.00
50866;PMS7003;36839;51.946;21.002;2023-03-03T16:31:32;57.00;43.00;24.00
50866;PMS7003;36839;51.946;21.002;2023-03-03T16:34:12;50.00;43.00;28.00
50866;PMS7003;36839;51.946;21.002;2023-03-03T16:37:03;57.00;41.50;26.50
50866;PMS7003;36839;51.946;21.002;2023-03-03T16:42:33;49.00;38.00;24.00
50866;PMS7003;36839;51.946;21.002;2023-03-03T16:54:10;58.00;43.00;27.00
50866;PMS7003;36839;51.946;21.002;2023-03-03T17:12:59;79.00;58.00;37.00
50866;PMS7003;36839;51.946;21.002;2023-03-03T17:15:42;93.00;69.00;41.00
50866;PMS7003;36839;51.946;21.002;2023-03-03T17:28:48;56.00;38.50;22.00
50866;PMS7003;36839;51.946;21.002;2023-03-03T17:31:40;51.00;40.00;23.50
50866;PMS7003;36839;51.946;21.002;2023-03-03T17:44:55;57.00;39.00;27.00
50866;PMS7003;36839;51.946;21.002;2023-03-03T17:50:27;58.00;43.00;28.00
50866;PMS7003;36839;51.946;21.002;2023-03-03T18:07:25;65.00;42.00;24.00
50866;PMS7003;36839;51.946;21.002;2023-03-03T18:13:12;55.00;40.00;27.00
50866;PMS7003;36839;51.946;21.002;2023-03-03T18:40:48;63.50;48.50;30.00
50866;PMS7003;36839;51.946;21.002;2023-03-03T18:57:14;53.00;40.00;28.00
50866;PMS7003;36839;51.946;21.002;2023-03-03T18:59:56;71.50;52.50;31.50
50866;PMS7003;36839;51.946;21.002;2023-03-03T19:02:52;75.00;52.50;32.00
50866;PMS7003;36839;51.946;21.002;2023-03-03T19:08:41;63.50;50.50;32.00
50866;PMS7003;36839;51.946;21.002;2023-03-03T19:17:43;82.00;59.00;36.00
50866;PMS7003;36839;51.946;21.002;2023-03-03T19:22:45;59.00;45.00;28.00
50866;PMS7003;36839;51.946;21.002;2023-03-03T19:25:19;69.00;51.00;31.00
50866;PMS7003;36839;51.946;21.002;2023-03-03T19:37:13;51.00;42.00;26.00
50866;PMS7003;36839;51.946;21.002;2023-03-03T19:40:10;51.50;43.00;27.00
50866;PMS7003;36839;51.946;21.002;2023-03-03T19:53:53;51.50;44.50;27.00
50866;PMS7003;36839;51.946;21.002;2023-03-03T19:59:48;63.00;52.00;31.00
50866;PMS7003;36839;51.946;21.002;2023-03-03T20:06:24;57.00;42.00;26.00
50866;PMS7003;36839;51.946;21.002;2023-03-03T20:15:46;66.00;48.50;29.50
50866;PMS7003;36839;51.946;21.002;2023-03-03T20:18:41;65.00;46.00;29.00
50866;PMS7003;36839;51.946;21.002;2023-03-03T20:21:51;65.50;47.00;28.00
50866;PMS7003;36839;51.946;21.002;2023-03-03T20:24:55;59.00;46.00;27.00
50866;PMS7003;36839;51.946;21.002;2023-03-03T20:34:04;57.00;41.00;27.00
50866;PMS7003;36839;51.946;21.002;2023-03-03T20:57:34;68.00;48.50;28.00
50866;PMS7003;36839;51.946;21.002;2023-03-03T21:00:26;72.00;49.00;32.00
50866;PMS7003;36839;51.946;21.002;2023-03-03T21:03:37;62.00;48.00;27.00
50866;PMS7003;36839;51.946;21.002;2023-03-03T21:06:11;61.50;47.00;27.00
50866;PMS7003;36839;51.946;21.002;2023-03-03T21:11:20;55.00;41.00;24.50
50866;PMS7003;36839;51.946;21.002;2023-03-03T21:14:00;51.50;41.00;27.00
50866;PMS7003;36839;51.946;21.002;2023-03-03T21:19:54;61.50;46.50;27.00
50866;PMS7003;36839;51.946;21.002;2023-03-03T21:22:43;62.00;46.00;28.00
50866;PMS7003;36839;51.946;21.002;2023-03-03T21:28:15;50.00;35.50;14.50
50866;PMS7003;36839;51.946;21.002;2023-03-03T21:41:52;63.00;44.50;26.00
50866;PMS7003;36839;51.946;21.002;2023-03-03T21:44:43;65.00;46.00;28.00
50866;PMS7003;36839;51.946;21.002;2023-03-03T21:47:26;51.50;40.50;26.00
50866;PMS7003;36839;51.946;21.002;2023-03-03T21:49:55;63.00;46.00;27.00
50866;PMS7003;36839;51.946;21.002;2023-03-03T21:52:26;62.00;45.00;28.00
50866;PMS7003;36839;51.946;21.002;2023-03-03T21:57:29;53.00;39.00;25.00
50866;PMS7003;36839;51.946;21.002;2023-03-03T22:04:54;53.50;43.00;26.50
50866;PMS7003;36839;51.946;21.002;2023-03-03T22:07:21;59.50;43.50;26.50
50866;PMS7003;36839;51.946;21.002;2023-03-03T22:09:58;55.00;43.00;26.00
50866;PMS7003;36839;51.946;21.002;2023-03-03T22:12:25;48.00;37.00;19.50
50866;PMS7003;36839;51.946;21.002;2023-03-03T22:14:52;59.00;45.00;25.00
50866;PMS7003;36839;51.946;21.002;2023-03-03T22:17:19;51.00;37.00;23.00
50866;PMS7003;36839;51.946;21.002;2023-03-03T22:19:46;53.00;44.00;25.00
50866;PMS7003;36839;51.946;21.002;2023-03-03T22:22:18;59.00;42.50;25.00
50866;PMS7003;36839;51.946;21.002;2023-03-03T22:24:45;65.50;45.00;28.50
50866;PMS7003;36839;51.946;21.002;2023-03-03T22:27:12;57.00;40.00;22.00
50866;PMS7003;36839;51.946;21.002;2023-03-03T22:29:40;35.00;28.00;3.00
50866;PMS7003;36839;51.946;21.002;2023-03-03T22:32:07;57.00;43.50;23.50
50866;PMS7003;36839;51.946;21.002;2023-03-03T22:34:34;52.00;40.00;17.50
50866;PMS7003;36839;51.946;21.002;2023-03-03T22:37:00;58.00;43.00;26.00
50866;PMS7003;36839;51.946;21.002;2023-03-03T22:39:27;59.00;41.00;27.00
50866;PMS7003;36839;51.946;21.002;2023-03-03T22:41:54;55.00;42.00;25.00
50866;PMS7003;36839;51.946;21.002;2023-03-03T22:44:22;42.50;37.00;23.50
50866;PMS7003;36839;51.946;21.002;2023-03-03T22:46:48;57.00;42.00;25.00